Avoca, Iowa
Current Conditions -  °F | °C
As of 9:55 PM on Wednesday 26 Nov 2014 (Local Time) from KHNR Reporting Station
Overcast Overcast  
Wind Chill:   Ceiling: 1100
Heat Index: 21°   Visibility: 10mi
Dew Point: 19°   Wind: 12mph
Humidity: 93%   Direction: 330°NNW
Pressure: 30.43"   Gusts: NA
Location:  41.48°N, 95.34°W
Report Text: KHNR 270355Z AUTO 33010KT 10SM OVC011 M06/M07 A3043 RMK AO2
Loading
Personal Weather Stations






























Interactive Weather Map New forecast layout! Learn more

10-Day Weather Forecast

Advertisements
Track Severe Weather on mobile